createdAt,value
2019-04-20T00:00:42.871Z,1028.87
2019-04-20T00:01:35.631Z,1028.86
2019-04-20T00:02:27.665Z,1028.81
2019-04-20T00:03:42.259Z,1028.8
2019-04-20T00:04:37.100Z,1028.81
2019-04-20T00:05:27.681Z,1028.77
2019-04-20T00:06:39.733Z,1028.8
2019-04-20T00:07:37.227Z,1028.84
2019-04-20T00:08:38.133Z,1028.81
2019-04-20T00:09:39.727Z,1028.85
2019-04-20T00:10:45.160Z,1028.82
2019-04-20T00:12:01.432Z,1028.79
2019-04-20T00:13:01.900Z,1028.8
2019-04-20T00:13:57.616Z,1028.81
2019-04-20T00:14:37.160Z,1028.79
2019-04-20T00:15:26.627Z,1028.78
2019-04-20T00:16:27.453Z,1028.78
2019-04-20T00:17:26.870Z,1028.76
2019-04-20T00:18:48.787Z,1028.78
2019-04-20T00:19:47.387Z,1028.77
2019-04-20T00:20:37.108Z,1028.75
2019-04-20T00:21:27.080Z,1028.76
2019-04-20T00:22:47.598Z,1028.78
2019-04-20T00:23:43.665Z,1028.8
2019-04-20T00:24:37.461Z,1028.8
2019-04-20T00:26:04.257Z,1028.81
2019-04-20T00:28:28.938Z,1028.81
2019-04-20T00:29:29.083Z,1028.81
2019-04-20T00:30:24.674Z,1028.8
2019-04-20T00:31:23.135Z,1028.81
2019-04-20T00:32:05.929Z,1028.78
2019-04-20T00:33:07.242Z,1028.76
2019-04-20T00:34:03.644Z,1028.77
2019-04-20T00:34:40.518Z,1028.76
2019-04-20T00:35:27.279Z,1028.71
2019-04-20T00:36:30.630Z,1028.7
2019-04-20T00:37:27.912Z,1028.73
2019-04-20T00:38:48.230Z,1028.73
2019-04-20T00:39:28.132Z,1028.7
2019-04-20T00:40:26.784Z,1028.72
2019-04-20T00:41:27.857Z,1028.7
2019-04-20T00:42:50.565Z,1028.72
2019-04-20T00:43:39.038Z,1028.72
2019-04-20T00:44:41.221Z,1028.68
2019-04-20T00:45:44.966Z,1028.69
2019-04-20T00:47:04.195Z,1028.69
2019-04-20T00:47:59.082Z,1028.71
2019-04-20T00:49:01.244Z,1028.72
2019-04-20T00:50:16.421Z,1028.7
2019-04-20T00:51:30.384Z,1028.68
2019-04-20T00:52:32.511Z,1028.73
2019-04-20T00:53:13.202Z,1028.69
2019-04-20T00:53:46.692Z,1028.72
2019-04-20T00:54:26.661Z,1028.67
2019-04-20T00:55:27.537Z,1028.69
2019-04-20T00:56:26.707Z,1028.69
2019-04-20T00:57:53.349Z,1028.68
2019-04-20T00:59:02.312Z,1028.64
2019-04-20T01:01:06.584Z,1028.64
2019-04-20T01:02:12.462Z,1028.66
2019-04-20T01:04:23.671Z,1028.66
2019-04-20T01:05:27.449Z,1028.66
2019-04-20T01:07:08.124Z,1028.63
2019-04-20T01:07:50.237Z,1028.67
2019-04-20T01:08:27.625Z,1028.68
2019-04-20T01:09:26.687Z,1028.65
2019-04-20T01:10:46.100Z,1028.66
2019-04-20T01:11:41.936Z,1028.67
2019-04-20T01:12:38.384Z,1028.69
2019-04-20T01:13:31.653Z,1028.73
2019-04-20T01:14:53.869Z,1028.73
2019-04-20T01:15:57.690Z,1028.72
2019-04-20T01:16:54.319Z,1028.69
2019-04-20T01:17:26.913Z,1028.72
2019-04-20T01:18:26.896Z,1028.73
2019-04-20T01:19:26.782Z,1028.72
2019-04-20T01:20:28.121Z,1028.74
2019-04-20T01:21:33.837Z,1028.71
2019-04-20T01:22:48.040Z,1028.71
2019-04-20T01:23:51.168Z,1028.71
2019-04-20T01:24:41.902Z,1028.74
2019-04-20T01:25:42.084Z,1028.8
2019-04-20T01:26:29.500Z,1028.83
2019-04-20T01:28:07.584Z,1028.85
2019-04-20T01:29:08.452Z,1028.88
2019-04-20T01:29:49.303Z,1028.91
2019-04-20T01:30:46.740Z,1028.93
2019-04-20T01:32:04.294Z,1028.9
2019-04-20T01:33:03.330Z,1028.89
2019-04-20T01:34:02.916Z,1028.86
2019-04-20T01:35:02.052Z,1028.88
2019-04-20T01:36:25.253Z,1028.89
2019-04-20T01:37:09.161Z,1028.9
2019-04-20T01:38:25.915Z,1028.94
2019-04-20T01:39:10.151Z,1028.87
2019-04-20T01:39:49.050Z,1028.9
2019-04-20T01:40:27.647Z,1028.89
2019-04-20T01:41:26.807Z,1028.84
2019-04-20T01:42:27.660Z,1028.91
2019-04-20T01:43:27.158Z,1028.92
2019-04-20T01:44:45.225Z,1028.91
2019-04-20T01:45:39.489Z,1028.89
2019-04-20T01:46:32.015Z,1028.91
2019-04-20T01:47:45.561Z,1028.88
2019-04-20T01:48:38.075Z,1028.93
2019-04-20T01:49:38.274Z,1028.91
2019-04-20T01:50:39.740Z,1028.85
2019-04-20T01:52:00.622Z,1028.86
2019-04-20T01:53:05.463Z,1028.87
2019-04-20T01:56:21.591Z,1028.84
2019-04-20T01:57:04.578Z,1028.82
2019-04-20T01:58:17.190Z,1028.84
2019-04-20T01:59:15.656Z,1028.85
2019-04-20T02:00:05.921Z,1028.85
2019-04-20T02:00:41.877Z,1028.86
2019-04-20T02:01:39.589Z,1028.87
2019-04-20T02:02:34.406Z,1028.87
2019-04-20T02:03:42.982Z,1028.88
2019-04-20T02:04:40.895Z,1028.88
2019-04-20T02:05:37.284Z,1028.89
2019-04-20T02:06:42.095Z,1028.92
2019-04-20T02:07:46.688Z,1028.87
2019-04-20T02:08:32.645Z,1028.89
2019-04-20T02:09:34.260Z,1028.93
2019-04-20T02:10:50.573Z,1028.91
2019-04-20T02:11:42.674Z,1028.91
2019-04-20T02:12:38.967Z,1028.9
2019-04-20T02:13:49.763Z,1028.89
2019-04-20T02:14:49.597Z,1028.94
2019-04-20T02:15:45.045Z,1028.97
2019-04-20T02:16:47.937Z,1028.96
2019-04-20T02:17:53.795Z,1028.98
2019-04-20T02:19:08.917Z,1028.97
2019-04-20T02:20:22.647Z,1028.97
2019-04-20T02:21:19.487Z,1028.97
2019-04-20T02:22:13.118Z,1028.99
2019-04-20T02:23:10.404Z,1029
2019-04-20T02:23:49.597Z,1028.97
2019-04-20T02:24:28.095Z,1029
2019-04-20T02:25:27.150Z,1029.02
2019-04-20T02:26:28.307Z,1029
2019-04-20T02:27:50.066Z,1029.01
2019-04-20T02:29:44.146Z,1029
2019-04-20T02:32:15.164Z,1029.04
2019-04-20T02:39:28.536Z,1029.04
2019-04-20T02:40:25.049Z,1028.99
2019-04-20T02:41:34.736Z,1029.01
2019-04-20T02:42:22.300Z,1029.03
2019-04-20T02:43:14.565Z,1029.05
2019-04-20T02:45:57.180Z,1029.06
2019-04-20T02:48:07.486Z,1029.06
2019-04-20T02:49:35.225Z,1029.02
2019-04-20T02:51:12.298Z,1029.04
2019-04-20T02:52:20.728Z,1029.07
2019-04-20T02:54:18.346Z,1029.02
2019-04-20T02:55:22.329Z,1029.01
2019-04-20T02:57:39.347Z,1028.97
2019-04-20T02:58:06.587Z,1029.01
2019-04-20T02:59:32.827Z,1028.99
2019-04-20T03:01:40.584Z,1028.95
2019-04-20T03:02:26.751Z,1029.02
2019-04-20T03:03:07.597Z,1028.98
2019-04-20T03:03:50.146Z,1028.95
2019-04-20T03:04:57.030Z,1028.97
2019-04-20T03:06:08.343Z,1028.98
2019-04-20T03:07:14.759Z,1028.92
2019-04-20T03:08:30.271Z,1028.94
2019-04-20T03:09:39.542Z,1028.97
2019-04-20T03:11:52.604Z,1028.96
2019-04-20T03:12:49.305Z,1028.95
2019-04-20T03:13:23.908Z,1028.95
2019-04-20T03:14:26.371Z,1028.96
2019-04-20T03:15:13.551Z,1028.97
2019-04-20T03:16:16.185Z,1028.93
2019-04-20T03:17:44.286Z,1028.93
2019-04-20T03:18:13.401Z,1028.91
2019-04-20T03:19:19.654Z,1028.93
2019-04-20T03:20:19.454Z,1028.93
2019-04-20T03:21:37.414Z,1028.93
2019-04-20T03:22:51.018Z,1028.89
2019-04-20T03:24:18.656Z,1028.92
2019-04-20T03:24:53.798Z,1028.91
2019-04-20T03:26:32.317Z,1028.89
2019-04-20T03:27:23.519Z,1028.92
2019-04-20T03:28:10.207Z,1028.89
2019-04-20T03:29:20.340Z,1028.9
2019-04-20T03:31:40.776Z,1028.92
2019-04-20T03:32:12.723Z,1028.92
2019-04-20T03:35:56.873Z,1028.9
2019-04-20T03:37:52.305Z,1028.89
2019-04-20T03:39:28.320Z,1028.87
2019-04-20T03:40:08.162Z,1028.88
2019-04-20T03:41:01.063Z,1028.92
2019-04-20T03:41:47.238Z,1028.91
2019-04-20T03:42:26.884Z,1028.89
2019-04-20T03:43:26.833Z,1028.93
2019-04-20T03:44:35.899Z,1028.95
2019-04-20T03:45:49.949Z,1028.96
2019-04-20T03:46:52.957Z,1028.94
2019-04-20T03:48:05.905Z,1028.92
2019-04-20T03:49:18.238Z,1029
2019-04-20T03:50:50.239Z,1028.95
2019-04-20T03:52:27.305Z,1028.97
2019-04-20T03:53:34.193Z,1029
2019-04-20T03:54:19.530Z,1029.02
2019-04-20T03:55:10.165Z,1028.96
2019-04-20T03:57:34.202Z,1028.99
2019-04-20T03:58:23.619Z,1028.98
2019-04-20T03:59:15.996Z,1028.96
2019-04-20T04:00:16.035Z,1028.96
2019-04-20T04:01:47.211Z,1028.99
2019-04-20T04:03:19.539Z,1028.98
2019-04-20T04:04:43.701Z,1029
2019-04-20T04:05:23.412Z,1028.99
2019-04-20T04:06:09.434Z,1029.01
2019-04-20T04:06:51.385Z,1028.97
2019-04-20T04:07:48.098Z,1028.98
2019-04-20T04:09:02.242Z,1029.01
2019-04-20T04:10:04.441Z,1029.02
2019-04-20T04:11:25.906Z,1029.03
2019-04-20T04:12:12.070Z,1029.01
2019-04-20T04:12:42.909Z,1029.02
2019-04-20T04:13:27.224Z,1029.04
2019-04-20T04:14:26.826Z,1029.04
2019-04-20T04:15:27.736Z,1029.04
2019-04-20T04:16:47.323Z,1029.03
2019-04-20T04:17:43.172Z,1029.04
2019-04-20T04:18:44.589Z,1029.02
2019-04-20T04:19:39.963Z,1029.06
2019-04-20T04:20:46.305Z,1029.02
2019-04-20T04:22:08.502Z,1029.01
2019-04-20T04:23:28.530Z,1029.03
2019-04-20T04:24:09.169Z,1029.03
2019-04-20T04:25:09.870Z,1029.01
2019-04-20T04:26:15.923Z,1029.02
2019-04-20T04:27:08.710Z,1029.03
2019-04-20T04:28:01.180Z,1029.05
2019-04-20T04:29:29.718Z,1029.08
2019-04-20T04:30:17.965Z,1029.06
2019-04-20T04:31:20.087Z,1029.05
2019-04-20T04:35:16.451Z,1029.05
2019-04-20T04:36:16.446Z,1029.08
2019-04-20T04:37:16.182Z,1029.12
2019-04-20T04:38:37.204Z,1029.11
2019-04-20T04:39:42.680Z,1029.09
2019-04-20T04:40:24.978Z,1029.16
2019-04-20T04:42:01.022Z,1029.13
2019-04-20T04:43:19.600Z,1029.18
2019-04-20T04:44:14.279Z,1029.2
2019-04-20T04:44:59.615Z,1029.19
2019-04-20T04:45:34.914Z,1029.2
2019-04-20T04:46:27.039Z,1029.23
2019-04-20T04:47:26.673Z,1029.24
2019-04-20T04:48:40.400Z,1029.24
2019-04-20T04:49:42.721Z,1029.28
2019-04-20T04:50:37.257Z,1029.26
2019-04-20T04:51:57.386Z,1029.26
2019-04-20T04:52:59.398Z,1029.26
2019-04-20T04:53:59.723Z,1029.29
2019-04-20T04:54:56.516Z,1029.3
2019-04-20T04:55:54.571Z,1029.29
2019-04-20T04:56:31.924Z,1029.3
2019-04-20T04:57:26.610Z,1029.31
2019-04-20T04:58:27.939Z,1029.34
2019-04-20T04:59:27.742Z,1029.32
2019-04-20T05:00:35.860Z,1029.35
2019-04-20T05:01:37.275Z,1029.38
2019-04-20T05:02:48.761Z,1029.39
2019-04-20T05:04:48.131Z,1029.39
2019-04-20T05:05:40.941Z,1029.4
2019-04-20T05:06:26.200Z,1029.41
2019-04-20T05:07:15.037Z,1029.4
2019-04-20T05:08:05.646Z,1029.4
2019-04-20T05:08:51.126Z,1029.42
2019-04-20T05:09:27.822Z,1029.47
2019-04-20T05:10:26.769Z,1029.47
2019-04-20T05:11:28.138Z,1029.5
2019-04-20T05:12:35.825Z,1029.49
2019-04-20T05:13:52.725Z,1029.47
2019-04-20T05:15:00.928Z,1029.51
2019-04-20T05:16:07.354Z,1029.52
2019-04-20T05:17:18.348Z,1029.52
2019-04-20T05:18:49.883Z,1029.51
2019-04-20T05:19:40.763Z,1029.5
2019-04-20T05:20:26.769Z,1029.54
2019-04-20T05:21:09.724Z,1029.54
2019-04-20T05:23:16.139Z,1029.56
2019-04-20T05:24:11.026Z,1029.56
2019-04-20T05:25:10.491Z,1029.58
2019-04-20T05:26:42.222Z,1029.53
2019-04-20T05:27:34.332Z,1029.65
2019-04-20T05:28:20.105Z,1029.57
2019-04-20T05:28:53.124Z,1029.62
2019-04-20T05:29:36.622Z,1029.56
2019-04-20T05:30:26.744Z,1029.59
2019-04-20T05:31:48.985Z,1029.6
2019-04-20T05:32:56.652Z,1029.59
2019-04-20T05:34:38.153Z,1029.55
2019-04-20T05:36:05.472Z,1029.55
2019-04-20T05:36:27.863Z,1029.57
2019-04-20T05:37:39.609Z,1029.59
2019-04-20T05:38:46.776Z,1029.62
2019-04-20T05:39:37.830Z,1029.62
2019-04-20T05:40:21.774Z,1029.6
2019-04-20T05:41:26.406Z,1029.64
2019-04-20T05:42:09.002Z,1029.64
2019-04-20T05:43:15.041Z,1029.63
2019-04-20T05:44:12.260Z,1029.62
2019-04-20T05:45:16.146Z,1029.66
2019-04-20T05:46:20.839Z,1029.67
2019-04-20T05:47:33.025Z,1029.71
2019-04-20T05:48:20.394Z,1029.65
2019-04-20T05:49:44.889Z,1029.68
2019-04-20T05:50:19.517Z,1029.65
2019-04-20T05:51:34.897Z,1029.7
2019-04-20T05:52:41.809Z,1029.67
2019-04-20T05:53:49.849Z,1029.68
2019-04-20T05:54:38.665Z,1029.67
2019-04-20T05:57:49.958Z,1029.69
2019-04-20T05:58:21.571Z,1029.73
2019-04-20T05:59:40.769Z,1029.73
2019-04-20T06:01:19.922Z,1029.75
2019-04-20T06:02:43.684Z,1029.78
2019-04-20T06:03:15.109Z,1029.73
2019-04-20T06:04:12.704Z,1029.74
2019-04-20T06:05:57.705Z,1029.74
2019-04-20T06:06:44.215Z,1029.74
2019-04-20T06:07:29.305Z,1029.75
2019-04-20T06:08:45.048Z,1029.77
2019-04-20T06:09:53.947Z,1029.72
2019-04-20T06:10:44.802Z,1029.72
2019-04-20T06:11:40.534Z,1029.77
2019-04-20T06:12:51.505Z,1029.76
2019-04-20T06:13:17.134Z,1029.78
2019-04-20T06:14:02.284Z,1029.73
2019-04-20T06:15:11.554Z,1029.73
2019-04-20T06:16:17.784Z,1029.73
2019-04-20T06:17:43.164Z,1029.76
2019-04-20T06:18:23.961Z,1029.78
2019-04-20T06:19:25.689Z,1029.75
2019-04-20T06:20:40.926Z,1029.75
2019-04-20T06:21:30.941Z,1029.77
2019-04-20T06:22:54.470Z,1029.78
2019-04-20T06:23:23.500Z,1029.76
2019-04-20T06:24:51.449Z,1029.82
2019-04-20T06:26:03.435Z,1029.81
2019-04-20T06:27:07.958Z,1029.82
2019-04-20T06:27:50.993Z,1029.81
2019-04-20T06:31:17.835Z,1029.88
2019-04-20T06:32:44.061Z,1029.85
2019-04-20T06:33:59.671Z,1029.89
2019-04-20T06:36:07.218Z,1029.92
2019-04-20T06:37:36.050Z,1029.94
2019-04-20T06:39:15.882Z,1029.97
2019-04-20T06:39:54.176Z,1029.97
2019-04-20T06:41:04.835Z,1029.95
2019-04-20T06:42:06.419Z,1029.95
2019-04-20T06:43:22.498Z,1029.96
2019-04-20T06:44:47.981Z,1029.95
2019-04-20T06:45:43.648Z,1029.96
2019-04-20T06:47:08.161Z,1029.95
2019-04-20T06:47:45.521Z,1029.94
2019-04-20T06:48:34.741Z,1029.93
2019-04-20T06:49:50.248Z,1029.95
2019-04-20T06:50:28.680Z,1029.96
2019-04-20T06:51:18.590Z,1029.94
2019-04-20T06:52:36.581Z,1029.95
2019-04-20T06:53:15.858Z,1029.93
2019-04-20T06:54:12.192Z,1029.98
2019-04-20T06:55:37.926Z,1029.93
2019-04-20T06:56:47.013Z,1029.95
2019-04-20T06:58:49.108Z,1029.92
2019-04-20T06:59:52.147Z,1029.98
2019-04-20T07:00:37.551Z,1029.95
2019-04-20T07:02:53.736Z,1030.02
2019-04-20T07:03:35.697Z,1029.99
2019-04-20T07:04:59.187Z,1029.92
2019-04-20T07:05:44.609Z,1029.96
2019-04-20T07:06:43.312Z,1029.95
2019-04-20T07:09:05.978Z,1029.96
2019-04-20T07:11:03.640Z,1029.98
2019-04-20T07:11:46.075Z,1029.94
2019-04-20T07:12:22.500Z,1029.96
2019-04-20T07:13:05.998Z,1029.93
2019-04-20T07:13:57.611Z,1029.95
2019-04-20T07:15:09.224Z,1029.96
2019-04-20T07:16:27.829Z,1029.95
2019-04-20T07:17:17.506Z,1029.94
2019-04-20T07:18:49.492Z,1029.94
2019-04-20T07:19:18.462Z,1029.98
2019-04-20T07:22:10.302Z,1029.97
2019-04-20T07:24:45.601Z,1029.97
2019-04-20T07:25:36.945Z,1029.99
2019-04-20T07:27:34.832Z,1029.96
2019-04-20T07:28:52.355Z,1029.9
2019-04-20T07:29:33.118Z,1029.97
2019-04-20T07:30:34.542Z,1029.97
2019-04-20T07:31:35.970Z,1029.97
2019-04-20T07:32:05.971Z,1029.98
2019-04-20T07:33:46.178Z,1029.96
2019-04-20T07:34:31.611Z,1029.96
2019-04-20T07:35:50.350Z,1029.94
2019-04-20T07:36:19.358Z,1029.98
2019-04-20T07:39:21.009Z,1029.97
2019-04-20T07:40:38.060Z,1030
2019-04-20T07:41:05.549Z,1029.98
2019-04-20T07:42:51.710Z,1029.98
2019-04-20T07:43:38.286Z,1030.02
2019-04-20T07:45:00.712Z,1029.98
2019-04-20T07:45:36.088Z,1029.98
2019-04-20T07:46:53.980Z,1029.97
2019-04-20T07:48:10.708Z,1029.94
2019-04-20T07:49:28.845Z,1029.95
2019-04-20T07:50:07.308Z,1029.93
2019-04-20T07:51:06.294Z,1029.94
2019-04-20T07:51:42.361Z,1029.94
2019-04-20T07:53:08.565Z,1029.92
2019-04-20T07:54:16.399Z,1029.92
2019-04-20T07:57:30.537Z,1029.91
2019-04-20T07:58:10.673Z,1029.93
2019-04-20T07:58:53.298Z,1029.9
2019-04-20T08:02:07.624Z,1029.92
2019-04-20T08:02:48.588Z,1029.93
2019-04-20T08:03:43.765Z,1029.91
2019-04-20T08:04:16.952Z,1029.9
2019-04-20T08:05:10.491Z,1029.87
2019-04-20T08:06:02.195Z,1029.9
2019-04-20T08:06:53.091Z,1029.9
2019-04-20T08:08:04.802Z,1029.89
2019-04-20T08:09:18.976Z,1029.91
2019-04-20T08:09:55.430Z,1029.87
2019-04-20T08:11:26.572Z,1029.84
2019-04-20T08:13:45.241Z,1029.87
2019-04-20T08:14:44.255Z,1029.88
2019-04-20T08:16:12.877Z,1029.89
2019-04-20T08:17:08.952Z,1029.85
2019-04-20T08:18:13.431Z,1029.85
2019-04-20T08:18:43.877Z,1029.83
2019-04-20T08:19:39.566Z,1029.87
2019-04-20T08:20:15.733Z,1029.88
2019-04-20T08:21:40.295Z,1029.82
2019-04-20T08:22:40.772Z,1029.89
2019-04-20T08:23:43.693Z,1029.85
2019-04-20T08:24:27.505Z,1029.87
2019-04-20T08:25:16.015Z,1029.83
2019-04-20T08:26:05.279Z,1029.83
2019-04-20T08:26:51.797Z,1029.92
2019-04-20T08:27:27.823Z,1029.83
2019-04-20T08:28:54.984Z,1029.83
2019-04-20T08:30:06.345Z,1029.86
2019-04-20T08:31:13.748Z,1029.86
2019-04-20T08:32:17.661Z,1029.85
2019-04-20T08:33:13.054Z,1029.83
2019-04-20T08:34:53.195Z,1029.81
2019-04-20T08:35:25.776Z,1029.82
2019-04-20T08:36:45.106Z,1029.82
2019-04-20T08:37:38.415Z,1029.75
2019-04-20T08:39:19.794Z,1029.82
2019-04-20T08:40:01.289Z,1029.79
2019-04-20T08:41:24.518Z,1029.79
2019-04-20T08:44:08.056Z,1029.76
2019-04-20T08:45:03.521Z,1029.75
2019-04-20T08:45:50.750Z,1029.76
2019-04-20T08:46:40.176Z,1029.73
2019-04-20T08:47:56.206Z,1029.78
2019-04-20T08:48:45.695Z,1029.75
2019-04-20T08:49:34.672Z,1029.72
2019-04-20T08:50:44.869Z,1029.73
2019-04-20T08:51:18.969Z,1029.7
2019-04-20T08:53:55.945Z,1029.69
2019-04-20T08:55:23.214Z,1029.66
2019-04-20T08:56:10.686Z,1029.65
2019-04-20T08:56:52.095Z,1029.66
2019-04-20T08:57:27.436Z,1029.7
2019-04-20T08:58:27.515Z,1029.67
2019-04-20T08:59:26.723Z,1029.63
2019-04-20T09:00:52.572Z,1029.63
2019-04-20T09:01:37.135Z,1029.59
2019-04-20T09:02:28.334Z,1029.62
2019-04-20T09:03:56.299Z,1029.6
2019-04-20T09:04:53.940Z,1029.58
2019-04-20T09:05:57.645Z,1029.6
2019-04-20T09:07:05.339Z,1029.59
2019-04-20T09:07:48.820Z,1029.58
2019-04-20T09:08:50.200Z,1029.56
2019-04-20T09:10:42.045Z,1029.57
2019-04-20T09:11:09.559Z,1029.6
2019-04-20T09:12:31.821Z,1029.58
2019-04-20T09:13:07.987Z,1029.62
2019-04-20T09:13:51.838Z,1029.61
2019-04-20T09:14:34.734Z,1029.55
2019-04-20T09:15:28.067Z,1029.57
2019-04-20T09:16:53.344Z,1029.56
2019-04-20T09:17:52.854Z,1029.52
2019-04-20T09:18:57.360Z,1029.56
2019-04-20T09:19:58.493Z,1029.54
2019-04-20T09:20:58.823Z,1029.52
2019-04-20T09:21:54.807Z,1029.53
2019-04-20T09:23:12.643Z,1029.48
2019-04-20T09:24:34.357Z,1029.49
2019-04-20T09:26:26.429Z,1029.46
2019-04-20T09:26:36.922Z,1029.48
2019-04-20T09:29:25.402Z,1029.45
2019-04-20T09:30:27.742Z,1029.43
2019-04-20T09:31:39.102Z,1029.39
2019-04-20T09:33:14.141Z,1029.36
2019-04-20T09:34:31.417Z,1029.38
2019-04-20T09:35:36.970Z,1029.38
2019-04-20T09:36:17.721Z,1029.31
2019-04-20T09:39:14.847Z,1029.25
2019-04-20T09:42:36.685Z,1029.2
2019-04-20T09:43:37.036Z,1029.15
2019-04-20T09:44:54.243Z,1029.19
2019-04-20T09:45:56.751Z,1029.19
2019-04-20T09:46:55.972Z,1029.19
2019-04-20T09:47:52.917Z,1029.17
2019-04-20T09:48:51.076Z,1029.17
2019-04-20T09:50:00.615Z,1029.16
2019-04-20T09:52:16.746Z,1029.15
2019-04-20T09:58:33.656Z,1029.14
2019-04-20T10:01:40.097Z,1029.16
2019-04-20T10:02:27.103Z,1029.15
2019-04-20T10:03:06.770Z,1029.15
2019-04-20T10:04:07.783Z,1029.11
2019-04-20T10:04:55.841Z,1029.13
2019-04-20T10:05:37.956Z,1029.09
2019-04-20T10:06:39.473Z,1029.13
2019-04-20T10:07:42.547Z,1029.08
2019-04-20T10:08:54.143Z,1029.14
2019-04-20T10:10:40.444Z,1029.14
2019-04-20T10:11:07.378Z,1029.08
2019-04-20T10:12:06.059Z,1029.1
2019-04-20T10:13:17.678Z,1029.11
2019-04-20T10:14:14.629Z,1029.12
2019-04-20T10:15:25.963Z,1029.08
2019-04-20T10:16:13.731Z,1029.03
2019-04-20T10:17:13.934Z,1029.06
2019-04-20T10:18:14.353Z,1029.03
2019-04-20T10:19:13.879Z,1029.04
2019-04-20T10:20:32.746Z,1029.07
2019-04-20T10:21:13.964Z,1029.04
2019-04-20T10:22:15.097Z,1029.02
2019-04-20T10:23:14.492Z,1029.08
2019-04-20T10:24:14.807Z,1029.04
2019-04-20T10:25:15.119Z,1029.06
2019-04-20T10:26:14.612Z,1029.08
2019-04-20T10:27:14.747Z,1029.04
2019-04-20T10:28:14.159Z,1029.01
2019-04-20T10:29:15.558Z,1029.04
2019-04-20T10:30:14.748Z,1029.01
2019-04-20T10:31:14.854Z,1029.01
2019-04-20T10:32:19.585Z,1028.99
2019-04-20T10:33:15.668Z,1028.97
2019-04-20T10:34:15.982Z,1029.05
2019-04-20T10:35:18.879Z,1028.99
2019-04-20T10:36:15.404Z,1029.03
2019-04-20T10:37:15.249Z,1029
2019-04-20T10:38:14.114Z,1028.96
2019-04-20T10:39:14.075Z,1028.94
2019-04-20T10:40:52.771Z,1028.94
2019-04-20T10:41:46.882Z,1028.89
2019-04-20T10:42:14.427Z,1028.91
2019-04-20T10:43:14.428Z,1028.89
2019-04-20T10:44:14.850Z,1028.9
2019-04-20T10:45:15.173Z,1028.94
2019-04-20T10:46:15.277Z,1028.87
2019-04-20T10:47:14.867Z,1028.94
2019-04-20T10:48:15.286Z,1029
2019-04-20T10:49:15.596Z,1028.97
2019-04-20T10:50:14.378Z,1028.94
2019-04-20T10:51:15.717Z,1028.89
2019-04-20T10:52:14.274Z,1028.92
2019-04-20T10:53:14.193Z,1028.9
2019-04-20T10:54:14.409Z,1028.91
2019-04-20T10:55:14.928Z,1028.86
2019-04-20T10:56:14.019Z,1028.92
2019-04-20T10:57:15.656Z,1028.9
2019-04-20T10:58:14.055Z,1028.9
2019-04-20T10:59:14.077Z,1028.91
2019-04-20T11:00:15.710Z,1028.9
2019-04-20T11:01:14.054Z,1028.93
2019-04-20T11:02:14.147Z,1028.85
2019-04-20T11:03:15.988Z,1028.89
2019-04-20T11:04:14.893Z,1028.81
2019-04-20T11:05:14.903Z,1028.82
2019-04-20T11:06:14.709Z,1028.83
2019-04-20T11:07:14.809Z,1028.82
2019-04-20T11:08:15.023Z,1028.77
2019-04-20T11:09:14.624Z,1028.74
2019-04-20T11:10:29.198Z,1028.76
2019-04-20T11:11:28.962Z,1028.73
2019-04-20T11:12:14.745Z,1028.72
2019-04-20T11:13:15.367Z,1028.9
2019-04-20T11:14:34.473Z,1028.76
2019-04-20T11:15:14.761Z,1028.75
2019-04-20T11:16:14.971Z,1028.72
2019-04-20T11:17:14.366Z,1028.71
2019-04-20T11:18:15.684Z,1028.76
2019-04-20T11:19:15.798Z,1028.72
2019-04-20T11:20:15.310Z,1028.75
2019-04-20T11:21:15.538Z,1028.73
2019-04-20T11:22:14.721Z,1028.76
2019-04-20T11:23:14.183Z,1028.77
2019-04-20T11:24:14.466Z,1028.75
2019-04-20T11:25:14.629Z,1028.69
2019-04-20T11:26:14.223Z,1028.72
2019-04-20T11:27:14.439Z,1028.63
2019-04-20T11:28:14.574Z,1028.67
2019-04-20T11:29:14.242Z,1028.61
2019-04-20T11:30:14.337Z,1028.65
2019-04-20T11:31:14.548Z,1028.65
2019-04-20T11:32:15.979Z,1028.56
2019-04-20T11:33:14.173Z,1028.66
2019-04-20T11:34:28.306Z,1028.63
2019-04-20T11:35:35.930Z,1028.62
2019-04-20T11:36:15.117Z,1028.61
2019-04-20T11:37:15.472Z,1028.59
2019-04-20T11:38:17.586Z,1028.55
2019-04-20T11:39:14.937Z,1028.58
2019-04-20T11:40:15.146Z,1028.6
2019-04-20T11:41:30.815Z,1028.58
2019-04-20T11:42:14.217Z,1028.54
2019-04-20T11:43:15.568Z,1028.54
2019-04-20T11:44:14.162Z,1028.51
2019-04-20T11:45:15.081Z,1028.46
2019-04-20T11:46:14.698Z,1028.5
2019-04-20T11:47:15.209Z,1028.48
2019-04-20T11:48:14.209Z,1028.5
2019-04-20T11:49:15.543Z,1028.41
2019-04-20T11:50:15.728Z,1028.44
2019-04-20T11:51:13.965Z,1028.38
2019-04-20T11:52:22.860Z,1028.31
2019-04-20T11:53:15.532Z,1028.4
2019-04-20T11:54:14.738Z,1028.41
2019-04-20T11:55:14.068Z,1028.4
2019-04-20T11:56:31.731Z,1028.41
2019-04-20T11:57:15.498Z,1028.44
2019-04-20T11:58:14.362Z,1028.43
2019-04-20T11:59:14.880Z,1028.4
2019-04-20T12:00:15.186Z,1028.41
2019-04-20T12:01:24.385Z,1028.39
2019-04-20T12:02:35.388Z,1028.37
2019-04-20T12:03:42.093Z,1028.37
2019-04-20T12:04:47.039Z,1028.28
2019-04-20T12:05:39.523Z,1028.3
2019-04-20T12:06:15.137Z,1028.37
2019-04-20T12:07:15.254Z,1028.26
2019-04-20T12:08:14.248Z,1028.27
2019-04-20T12:09:15.060Z,1028.24
2019-04-20T12:10:24.125Z,1028.17
2019-04-20T12:11:47.443Z,1028.25
2019-04-20T12:12:41.880Z,1028.23
2019-04-20T12:13:16.117Z,1028.18
2019-04-20T12:14:14.681Z,1028.25
2019-04-20T12:15:14.892Z,1028.22
2019-04-20T12:16:14.051Z,1028.26
2019-04-20T12:17:15.699Z,1028.2
2019-04-20T12:18:14.088Z,1028.23
2019-04-20T12:19:14.919Z,1028.13
2019-04-20T12:20:14.718Z,1028.14
2019-04-20T12:21:14.928Z,1028.14
2019-04-20T12:22:14.162Z,1028.11
2019-04-20T12:23:14.177Z,1028.16
2019-04-20T12:24:14.437Z,1028.11
2019-04-20T12:25:14.343Z,1028.11
2019-04-20T12:26:16.192Z,1028.07
2019-04-20T12:27:14.789Z,1028.12
2019-04-20T12:28:14.125Z,1028.12
2019-04-20T12:29:14.167Z,1028.05
2019-04-20T12:30:15.613Z,1028.07
2019-04-20T12:31:27.209Z,1027.98
2019-04-20T12:32:14.807Z,1027.97
2019-04-20T12:33:15.827Z,1027.97
2019-04-20T12:34:14.142Z,1028
2019-04-20T12:35:14.312Z,1028.01
2019-04-20T12:36:14.527Z,1027.97
2019-04-20T12:37:15.560Z,1028.02
2019-04-20T12:38:15.054Z,1027.98
2019-04-20T12:39:15.263Z,1027.98
2019-04-20T12:40:17.605Z,1027.95
2019-04-20T12:41:16.398Z,1028.02
2019-04-20T12:42:14.976Z,1027.94
2019-04-20T12:43:15.298Z,1027.96
2019-04-20T12:44:14.274Z,1027.97
2019-04-20T12:45:14.075Z,1027.91
2019-04-20T12:46:21.726Z,1027.89
2019-04-20T12:47:14.303Z,1027.91
2019-04-20T12:48:13.977Z,1027.89
2019-04-20T12:49:14.036Z,1027.88
2019-04-20T12:50:14.054Z,1027.93
2019-04-20T12:51:15.670Z,1027.88
2019-04-20T12:52:14.540Z,1027.83
2019-04-20T12:53:14.957Z,1027.8
2019-04-20T12:54:14.656Z,1027.82
2019-04-20T12:55:14.766Z,1027.93
2019-04-20T12:56:14.880Z,1027.88
2019-04-20T12:57:14.679Z,1027.89
2019-04-20T12:58:14.805Z,1027.96
2019-04-20T12:59:14.154Z,1027.83
2019-04-20T13:00:15.416Z,1027.86
2019-04-20T13:01:20.887Z,1027.8
2019-04-20T13:02:15.825Z,1027.82
2019-04-20T13:03:14.221Z,1027.78
2019-04-20T13:04:14.535Z,1027.78
2019-04-20T13:05:15.637Z,1027.78
2019-04-20T13:06:14.358Z,1027.75
2019-04-20T13:07:15.856Z,1027.79
2019-04-20T13:08:36.553Z,1027.69
2019-04-20T13:09:14.770Z,1027.66
2019-04-20T13:10:14.121Z,1027.68
2019-04-20T13:11:14.103Z,1027.72
2019-04-20T13:12:15.787Z,1027.68
2019-04-20T13:13:14.591Z,1027.69
2019-04-20T13:14:14.707Z,1027.69
2019-04-20T13:15:14.297Z,1027.65
2019-04-20T13:16:14.511Z,1027.65
2019-04-20T13:17:14.720Z,1027.63
2019-04-20T13:18:15.132Z,1027.6
2019-04-20T13:19:15.285Z,1027.65
2019-04-20T13:20:14.244Z,1027.59
2019-04-20T13:21:14.163Z,1027.54
2019-04-20T13:22:14.964Z,1027.53
2019-04-20T13:23:15.172Z,1027.52
2019-04-20T13:24:14.136Z,1027.48
2019-04-20T13:25:15.084Z,1027.44
2019-04-20T13:26:17.623Z,1027.5
2019-04-20T13:27:14.618Z,1027.49
2019-04-20T13:28:14.906Z,1027.45
2019-04-20T13:29:15.132Z,1027.48